sensor_id;sensor_type;location;lat;lon;timestamp;P1;durP1;ratioP1;P2;durP2;ratioP2
43146;SDS011;28752;48.266;7.402;2023-02-22T00:00:27;30.65;;;15.77;;
43146;SDS011;28752;48.266;7.402;2023-02-22T00:05:45;16.10;;;9.43;;
43146;SDS011;28752;48.266;7.402;2023-02-22T00:08:13;19.67;;;11.45;;
43146;SDS011;28752;48.266;7.402;2023-02-22T00:10:39;27.35;;;14.82;;
43146;SDS011;28752;48.266;7.402;2023-02-22T00:13:08;21.13;;;12.13;;
43146;SDS011;28752;48.266;7.402;2023-02-22T00:15:35;20.40;;;12.02;;
43146;SDS011;28752;48.266;7.402;2023-02-22T00:18:01;19.55;;;10.82;;
43146;SDS011;28752;48.266;7.402;2023-02-22T00:20:27;17.38;;;9.57;;
43146;SDS011;28752;48.266;7.402;2023-02-22T00:22:53;16.50;;;9.60;;
43146;SDS011;28752;48.266;7.402;2023-02-22T00:25:20;17.10;;;9.52;;
43146;SDS011;28752;48.266;7.402;2023-02-22T00:27:48;18.17;;;10.85;;
43146;SDS011;28752;48.266;7.402;2023-02-22T00:30:27;16.20;;;10.32;;
43146;SDS011;28752;48.266;7.402;2023-02-22T00:32:54;14.23;;;8.25;;
43146;SDS011;28752;48.266;7.402;2023-02-22T00:35:21;13.15;;;8.02;;
43146;SDS011;28752;48.266;7.402;2023-02-22T00:37:49;13.52;;;8.35;;
43146;SDS011;28752;48.266;7.402;2023-02-22T00:40:18;16.42;;;8.75;;
43146;SDS011;28752;48.266;7.402;2023-02-22T00:42:45;15.75;;;8.55;;
43146;SDS011;28752;48.266;7.402;2023-02-22T00:45:12;12.13;;;7.80;;
43146;SDS011;28752;48.266;7.402;2023-02-22T00:47:40;14.13;;;7.20;;
43146;SDS011;28752;48.266;7.402;2023-02-22T00:50:05;11.67;;;7.20;;
43146;SDS011;28752;48.266;7.402;2023-02-22T00:52:31;21.50;;;12.47;;
43146;SDS011;28752;48.266;7.402;2023-02-22T00:54:56;21.50;;;12.43;;
43146;SDS011;28752;48.266;7.402;2023-02-22T00:57:22;20.20;;;12.63;;
43146;SDS011;28752;48.266;7.402;2023-02-22T00:59:48;25.05;;;15.65;;
43146;SDS011;28752;48.266;7.402;2023-02-22T01:02:13;34.50;;;21.97;;
43146;SDS011;28752;48.266;7.402;2023-02-22T01:04:39;27.03;;;15.60;;
43146;SDS011;28752;48.266;7.402;2023-02-22T01:07:04;22.10;;;12.53;;
43146;SDS011;28752;48.266;7.402;2023-02-22T01:09:30;17.73;;;10.23;;
43146;SDS011;28752;48.266;7.402;2023-02-22T01:11:55;15.87;;;8.70;;
43146;SDS011;28752;48.266;7.402;2023-02-22T01:14:22;17.10;;;9.43;;
43146;SDS011;28752;48.266;7.402;2023-02-22T01:16:50;20.17;;;9.27;;
43146;SDS011;28752;48.266;7.402;2023-02-22T01:19:19;15.48;;;8.85;;
43146;SDS011;28752;48.266;7.402;2023-02-22T01:21:50;14.32;;;8.00;;
43146;SDS011;28752;48.266;7.402;2023-02-22T01:24:17;13.03;;;7.43;;
43146;SDS011;28752;48.266;7.402;2023-02-22T01:26:43;11.65;;;7.25;;
43146;SDS011;28752;48.266;7.402;2023-02-22T01:29:14;13.48;;;6.47;;
43146;SDS011;28752;48.266;7.402;2023-02-22T01:31:41;10.48;;;6.60;;
43146;SDS011;28752;48.266;7.402;2023-02-22T01:34:10;10.70;;;6.75;;
43146;SDS011;28752;48.266;7.402;2023-02-22T01:39:02;14.90;;;8.27;;
43146;SDS011;28752;48.266;7.402;2023-02-22T01:41:28;12.63;;;8.30;;
43146;SDS011;28752;48.266;7.402;2023-02-22T01:43:53;14.53;;;8.57;;
43146;SDS011;28752;48.266;7.402;2023-02-22T01:46:20;14.27;;;9.27;;
43146;SDS011;28752;48.266;7.402;2023-02-22T01:51:28;19.20;;;10.32;;
43146;SDS011;28752;48.266;7.402;2023-02-22T01:54:24;17.05;;;11.00;;
43146;SDS011;28752;48.266;7.402;2023-02-22T01:59:36;18.30;;;10.80;;
43146;SDS011;28752;48.266;7.402;2023-02-22T02:02:05;16.10;;;10.82;;
43146;SDS011;28752;48.266;7.402;2023-02-22T02:04:31;15.73;;;10.43;;
43146;SDS011;28752;48.266;7.402;2023-02-22T02:07:02;17.25;;;10.68;;
43146;SDS011;28752;48.266;7.402;2023-02-22T02:09:41;21.38;;;12.02;;
43146;SDS011;28752;48.266;7.402;2023-02-22T02:12:12;29.42;;;13.75;;
43146;SDS011;28752;48.266;7.402;2023-02-22T02:14:41;20.27;;;12.65;;
43146;SDS011;28752;48.266;7.402;2023-02-22T02:17:08;26.45;;;14.20;;
43146;SDS011;28752;48.266;7.402;2023-02-22T02:28:29;18.92;;;11.40;;
43146;SDS011;28752;48.266;7.402;2023-02-22T02:31:09;19.45;;;11.32;;
43146;SDS011;28752;48.266;7.402;2023-02-22T02:34:04;20.10;;;10.77;;
43146;SDS011;28752;48.266;7.402;2023-02-22T02:39:42;19.27;;;10.23;;
43146;SDS011;28752;48.266;7.402;2023-02-22T02:42:15;17.75;;;9.95;;
43146;SDS011;28752;48.266;7.402;2023-02-22T02:44:54;17.30;;;10.10;;
43146;SDS011;28752;48.266;7.402;2023-02-22T02:47:26;18.75;;;10.88;;
43146;SDS011;28752;48.266;7.402;2023-02-22T02:50:04;14.20;;;9.75;;
43146;SDS011;28752;48.266;7.402;2023-02-22T02:52:34;18.70;;;9.88;;
43146;SDS011;28752;48.266;7.402;2023-02-22T02:55:01;17.42;;;10.82;;
43146;SDS011;28752;48.266;7.402;2023-02-22T02:57:28;15.15;;;10.13;;
43146;SDS011;28752;48.266;7.402;2023-02-22T02:59:54;14.47;;;9.47;;
43146;SDS011;28752;48.266;7.402;2023-02-22T03:18:24;13.63;;;7.80;;
43146;SDS011;28752;48.266;7.402;2023-02-22T03:23:40;13.15;;;7.97;;
43146;SDS011;28752;48.266;7.402;2023-02-22T03:26:22;12.50;;;7.30;;
43146;SDS011;28752;48.266;7.402;2023-02-22T03:28:53;12.70;;;8.05;;
43146;SDS011;28752;48.266;7.402;2023-02-22T03:31:24;12.68;;;7.45;;
43146;SDS011;28752;48.266;7.402;2023-02-22T03:33:55;12.35;;;7.47;;
43146;SDS011;28752;48.266;7.402;2023-02-22T03:36:29;12.02;;;7.15;;
43146;SDS011;28752;48.266;7.402;2023-02-22T03:39:02;12.45;;;7.70;;
43146;SDS011;28752;48.266;7.402;2023-02-22T03:41:30;12.80;;;7.30;;
43146;SDS011;28752;48.266;7.402;2023-02-22T03:44:01;12.15;;;7.53;;
43146;SDS011;28752;48.266;7.402;2023-02-22T03:51:30;11.52;;;6.47;;
43146;SDS011;28752;48.266;7.402;2023-02-22T03:53:56;11.70;;;6.97;;
43146;SDS011;28752;48.266;7.402;2023-02-22T03:56:24;15.00;;;8.13;;
43146;SDS011;28752;48.266;7.402;2023-02-22T03:58:59;14.18;;;6.97;;
43146;SDS011;28752;48.266;7.402;2023-02-22T04:01:33;11.30;;;7.43;;
43146;SDS011;28752;48.266;7.402;2023-02-22T04:03:58;12.88;;;7.47;;
43146;SDS011;28752;48.266;7.402;2023-02-22T04:06:24;13.45;;;7.97;;
43146;SDS011;28752;48.266;7.402;2023-02-22T04:08:50;12.23;;;7.30;;
43146;SDS011;28752;48.266;7.402;2023-02-22T04:11:15;12.50;;;7.53;;
43146;SDS011;28752;48.266;7.402;2023-02-22T04:13:40;13.60;;;8.07;;
43146;SDS011;28752;48.266;7.402;2023-02-22T04:16:06;13.67;;;8.33;;
43146;SDS011;28752;48.266;7.402;2023-02-22T04:18:31;14.10;;;8.10;;
43146;SDS011;28752;48.266;7.402;2023-02-22T04:20:56;12.37;;;7.53;;
43146;SDS011;28752;48.266;7.402;2023-02-22T04:23:25;12.70;;;7.80;;
43146;SDS011;28752;48.266;7.402;2023-02-22T04:25:51;14.27;;;7.95;;
43146;SDS011;28752;48.266;7.402;2023-02-22T04:28:16;12.32;;;8.13;;
43146;SDS011;28752;48.266;7.402;2023-02-22T04:30:42;10.93;;;6.95;;
43146;SDS011;28752;48.266;7.402;2023-02-22T04:33:08;12.87;;;8.13;;
43146;SDS011;28752;48.266;7.402;2023-02-22T04:35:34;13.95;;;8.30;;
43146;SDS011;28752;48.266;7.402;2023-02-22T04:38:00;12.88;;;7.60;;
43146;SDS011;28752;48.266;7.402;2023-02-22T04:40:26;12.02;;;7.53;;
43146;SDS011;28752;48.266;7.402;2023-02-22T04:42:51;12.83;;;7.77;;
43146;SDS011;28752;48.266;7.402;2023-02-22T04:45:17;14.67;;;8.50;;
43146;SDS011;28752;48.266;7.402;2023-02-22T04:47:42;12.80;;;8.37;;
43146;SDS011;28752;48.266;7.402;2023-02-22T04:50:08;14.67;;;9.60;;
43146;SDS011;28752;48.266;7.402;2023-02-22T04:52:35;21.52;;;12.13;;
43146;SDS011;28752;48.266;7.402;2023-02-22T04:55:00;22.73;;;13.27;;
43146;SDS011;28752;48.266;7.402;2023-02-22T04:57:26;21.77;;;13.03;;
43146;SDS011;28752;48.266;7.402;2023-02-22T04:59:51;20.57;;;13.30;;
43146;SDS011;28752;48.266;7.402;2023-02-22T05:02:17;19.05;;;13.18;;
43146;SDS011;28752;48.266;7.402;2023-02-22T05:04:43;18.73;;;12.43;;
43146;SDS011;28752;48.266;7.402;2023-02-22T05:07:09;18.33;;;12.98;;
43146;SDS011;28752;48.266;7.402;2023-02-22T05:09:35;20.35;;;12.80;;
43146;SDS011;28752;48.266;7.402;2023-02-22T05:12:00;19.53;;;12.43;;
43146;SDS011;28752;48.266;7.402;2023-02-22T05:14:25;20.20;;;12.20;;
43146;SDS011;28752;48.266;7.402;2023-02-22T05:16:53;19.42;;;11.75;;
43146;SDS011;28752;48.266;7.402;2023-02-22T05:19:22;19.10;;;11.82;;
43146;SDS011;28752;48.266;7.402;2023-02-22T05:21:48;17.73;;;11.98;;
43146;SDS011;28752;48.266;7.402;2023-02-22T05:24:13;14.90;;;10.40;;
43146;SDS011;28752;48.266;7.402;2023-02-22T05:26:39;15.47;;;10.63;;
43146;SDS011;28752;48.266;7.402;2023-02-22T05:29:04;16.30;;;10.10;;
43146;SDS011;28752;48.266;7.402;2023-02-22T05:31:30;17.92;;;10.27;;
43146;SDS011;28752;48.266;7.402;2023-02-22T05:33:56;15.83;;;10.47;;
43146;SDS011;28752;48.266;7.402;2023-02-22T05:41:13;15.63;;;9.27;;
43146;SDS011;28752;48.266;7.402;2023-02-22T05:43:39;16.67;;;9.73;;
43146;SDS011;28752;48.266;7.402;2023-02-22T05:46:05;17.17;;;10.30;;
43146;SDS011;28752;48.266;7.402;2023-02-22T05:48:31;16.10;;;9.63;;
43146;SDS011;28752;48.266;7.402;2023-02-22T05:50:56;19.03;;;9.43;;
43146;SDS011;28752;48.266;7.402;2023-02-22T05:53:22;18.30;;;9.65;;
43146;SDS011;28752;48.266;7.402;2023-02-22T05:55:49;13.75;;;8.73;;
43146;SDS011;28752;48.266;7.402;2023-02-22T05:58:15;13.77;;;8.65;;
43146;SDS011;28752;48.266;7.402;2023-02-22T06:00:40;12.40;;;7.63;;
43146;SDS011;28752;48.266;7.402;2023-02-22T06:03:06;12.40;;;8.03;;
43146;SDS011;28752;48.266;7.402;2023-02-22T06:05:33;13.82;;;8.65;;
43146;SDS011;28752;48.266;7.402;2023-02-22T06:07:59;14.82;;;8.25;;
43146;SDS011;28752;48.266;7.402;2023-02-22T06:10:25;15.00;;;8.70;;
43146;SDS011;28752;48.266;7.402;2023-02-22T06:12:51;12.48;;;7.88;;
43146;SDS011;28752;48.266;7.402;2023-02-22T06:15:18;13.25;;;8.27;;
43146;SDS011;28752;48.266;7.402;2023-02-22T06:17:45;13.80;;;8.52;;
43146;SDS011;28752;48.266;7.402;2023-02-22T06:20:12;13.15;;;9.18;;
43146;SDS011;28752;48.266;7.402;2023-02-22T06:22:38;15.43;;;8.05;;
43146;SDS011;28752;48.266;7.402;2023-02-22T06:25:07;15.10;;;8.32;;
43146;SDS011;28752;48.266;7.402;2023-02-22T06:27:33;15.35;;;9.18;;
43146;SDS011;28752;48.266;7.402;2023-02-22T06:29:59;15.52;;;9.88;;
43146;SDS011;28752;48.266;7.402;2023-02-22T06:32:25;15.93;;;10.63;;
43146;SDS011;28752;48.266;7.402;2023-02-22T06:34:51;18.33;;;11.48;;
43146;SDS011;28752;48.266;7.402;2023-02-22T06:37:16;19.43;;;11.93;;
43146;SDS011;28752;48.266;7.402;2023-02-22T06:39:42;17.40;;;10.50;;
43146;SDS011;28752;48.266;7.402;2023-02-22T06:42:07;17.70;;;10.63;;
43146;SDS011;28752;48.266;7.402;2023-02-22T06:44:32;19.33;;;10.97;;
43146;SDS011;28752;48.266;7.402;2023-02-22T06:46:58;14.77;;;9.97;;
43146;SDS011;28752;48.266;7.402;2023-02-22T06:49:24;13.93;;;10.07;;
43146;SDS011;28752;48.266;7.402;2023-02-22T06:51:51;15.68;;;9.50;;
43146;SDS011;28752;48.266;7.402;2023-02-22T06:54:16;16.20;;;9.48;;
43146;SDS011;28752;48.266;7.402;2023-02-22T06:56:41;15.03;;;9.80;;
43146;SDS011;28752;48.266;7.402;2023-02-22T06:59:07;16.70;;;10.23;;
43146;SDS011;28752;48.266;7.402;2023-02-22T07:01:32;17.77;;;10.87;;
43146;SDS011;28752;48.266;7.402;2023-02-22T07:03:58;17.90;;;11.40;;
43146;SDS011;28752;48.266;7.402;2023-02-22T07:06:23;18.50;;;11.07;;
43146;SDS011;28752;48.266;7.402;2023-02-22T07:08:48;19.57;;;11.63;;
43146;SDS011;28752;48.266;7.402;2023-02-22T07:11:14;17.57;;;11.70;;
43146;SDS011;28752;48.266;7.402;2023-02-22T07:13:40;18.50;;;11.75;;
43146;SDS011;28752;48.266;7.402;2023-02-22T07:16:06;16.63;;;10.80;;
43146;SDS011;28752;48.266;7.402;2023-02-22T07:18:31;17.80;;;11.97;;
43146;SDS011;28752;48.266;7.402;2023-02-22T07:20:56;19.83;;;11.70;;
43146;SDS011;28752;48.266;7.402;2023-02-22T07:23:22;19.45;;;11.05;;
43146;SDS011;28752;48.266;7.402;2023-02-22T07:25:48;17.42;;;11.48;;
43146;SDS011;28752;48.266;7.402;2023-02-22T07:28:14;19.17;;;11.85;;
43146;SDS011;28752;48.266;7.402;2023-02-22T07:30:39;18.10;;;12.32;;
43146;SDS011;28752;48.266;7.402;2023-02-22T07:33:09;23.63;;;13.70;;
43146;SDS011;28752;48.266;7.402;2023-02-22T07:35:38;23.10;;;13.55;;
43146;SDS011;28752;48.266;7.402;2023-02-22T07:38:08;20.42;;;12.77;;
43146;SDS011;28752;48.266;7.402;2023-02-22T07:40:34;19.80;;;12.15;;
43146;SDS011;28752;48.266;7.402;2023-02-22T07:43:02;20.92;;;12.27;;
43146;SDS011;28752;48.266;7.402;2023-02-22T07:45:30;20.40;;;12.05;;
43146;SDS011;28752;48.266;7.402;2023-02-22T07:47:57;19.08;;;12.20;;
43146;SDS011;28752;48.266;7.402;2023-02-22T07:50:24;20.98;;;12.68;;
43146;SDS011;28752;48.266;7.402;2023-02-22T07:52:52;18.15;;;12.57;;
43146;SDS011;28752;48.266;7.402;2023-02-22T07:55:21;19.20;;;12.00;;
43146;SDS011;28752;48.266;7.402;2023-02-22T07:57:49;20.75;;;12.68;;
43146;SDS011;28752;48.266;7.402;2023-02-22T08:00:20;20.10;;;13.43;;
43146;SDS011;28752;48.266;7.402;2023-02-22T08:02:51;18.63;;;12.73;;
43146;SDS011;28752;48.266;7.402;2023-02-22T08:05:17;18.55;;;12.27;;
43146;SDS011;28752;48.266;7.402;2023-02-22T08:07:42;17.98;;;12.68;;
43146;SDS011;28752;48.266;7.402;2023-02-22T08:10:08;20.87;;;12.87;;
43146;SDS011;28752;48.266;7.402;2023-02-22T08:15:00;25.00;;;13.57;;
43146;SDS011;28752;48.266;7.402;2023-02-22T08:17:27;19.80;;;12.52;;
43146;SDS011;28752;48.266;7.402;2023-02-22T08:19:52;18.47;;;11.70;;
43146;SDS011;28752;48.266;7.402;2023-02-22T08:22:18;13.63;;;9.03;;
43146;SDS011;28752;48.266;7.402;2023-02-22T08:24:43;13.93;;;8.10;;
43146;SDS011;28752;48.266;7.402;2023-02-22T08:27:09;13.50;;;8.60;;
43146;SDS011;28752;48.266;7.402;2023-02-22T08:29:34;15.50;;;10.50;;
43146;SDS011;28752;48.266;7.402;2023-02-22T08:31:59;16.53;;;11.10;;
43146;SDS011;28752;48.266;7.402;2023-02-22T08:34:25;15.57;;;9.07;;
43146;SDS011;28752;48.266;7.402;2023-02-22T08:36:50;11.40;;;6.90;;
43146;SDS011;28752;48.266;7.402;2023-02-22T08:39:17;11.23;;;6.75;;
43146;SDS011;28752;48.266;7.402;2023-02-22T08:41:43;14.57;;;5.85;;
43146;SDS011;28752;48.266;7.402;2023-02-22T08:44:08;10.67;;;5.83;;
43146;SDS011;28752;48.266;7.402;2023-02-22T08:46:34;9.90;;;5.27;;
43146;SDS011;28752;48.266;7.402;2023-02-22T08:48:59;10.60;;;6.10;;
43146;SDS011;28752;48.266;7.402;2023-02-22T08:51:24;10.30;;;5.63;;
43146;SDS011;28752;48.266;7.402;2023-02-22T08:53:50;10.05;;;5.85;;
43146;SDS011;28752;48.266;7.402;2023-02-22T08:56:17;10.77;;;7.05;;
43146;SDS011;28752;48.266;7.402;2023-02-22T08:58:43;9.13;;;6.05;;
43146;SDS011;28752;48.266;7.402;2023-02-22T09:01:08;10.77;;;6.03;;
43146;SDS011;28752;48.266;7.402;2023-02-22T09:03:33;8.83;;;5.73;;
43146;SDS011;28752;48.266;7.402;2023-02-22T09:05:59;11.00;;;6.60;;
43146;SDS011;28752;48.266;7.402;2023-02-22T09:08:24;11.80;;;6.63;;
43146;SDS011;28752;48.266;7.402;2023-02-22T09:10:49;11.80;;;7.27;;
43146;SDS011;28752;48.266;7.402;2023-02-22T09:13:15;10.77;;;6.80;;
43146;SDS011;28752;48.266;7.402;2023-02-22T09:15:41;13.23;;;7.50;;
43146;SDS011;28752;48.266;7.402;2023-02-22T09:18:07;12.98;;;8.43;;
43146;SDS011;28752;48.266;7.402;2023-02-22T09:20:34;13.00;;;8.02;;
43146;SDS011;28752;48.266;7.402;2023-02-22T09:23:00;16.15;;;9.32;;
43146;SDS011;28752;48.266;7.402;2023-02-22T09:25:27;17.17;;;9.80;;
43146;SDS011;28752;48.266;7.402;2023-02-22T09:27:53;14.65;;;9.82;;
43146;SDS011;28752;48.266;7.402;2023-02-22T09:30:25;13.55;;;8.50;;
43146;SDS011;28752;48.266;7.402;2023-02-22T09:32:56;11.35;;;7.75;;
43146;SDS011;28752;48.266;7.402;2023-02-22T09:35:23;12.13;;;7.85;;
43146;SDS011;28752;48.266;7.402;2023-02-22T09:37:51;12.52;;;7.18;;
43146;SDS011;28752;48.266;7.402;2023-02-22T09:40:18;12.25;;;7.53;;
43146;SDS011;28752;48.266;7.402;2023-02-22T09:45:43;12.70;;;8.02;;
43146;SDS011;28752;48.266;7.402;2023-02-22T09:48:16;16.70;;;9.38;;
43146;SDS011;28752;48.266;7.402;2023-02-22T09:50:44;16.23;;;9.77;;
43146;SDS011;28752;48.266;7.402;2023-02-22T09:55:53;16.90;;;9.90;;
43146;SDS011;28752;48.266;7.402;2023-02-22T09:58:24;17.02;;;11.27;;
43146;SDS011;28752;48.266;7.402;2023-02-22T10:01:01;14.88;;;10.40;;
43146;SDS011;28752;48.266;7.402;2023-02-22T10:03:47;15.52;;;10.77;;
43146;SDS011;28752;48.266;7.402;2023-02-22T10:06:18;18.08;;;10.77;;
43146;SDS011;28752;48.266;7.402;2023-02-22T10:08:47;19.20;;;10.63;;
43146;SDS011;28752;48.266;7.402;2023-02-22T10:14:08;17.25;;;10.25;;
43146;SDS011;28752;48.266;7.402;2023-02-22T10:16:54;23.25;;;11.43;;
43146;SDS011;28752;48.266;7.402;2023-02-22T10:19:38;18.08;;;11.63;;
43146;SDS011;28752;48.266;7.402;2023-02-22T10:25:00;17.60;;;11.60;;
43146;SDS011;28752;48.266;7.402;2023-02-22T10:27:32;17.40;;;11.57;;
43146;SDS011;28752;48.266;7.402;2023-02-22T10:32:40;17.63;;;11.65;;
43146;SDS011;28752;48.266;7.402;2023-02-22T10:35:17;16.40;;;11.13;;
43146;SDS011;28752;48.266;7.402;2023-02-22T10:37:49;15.82;;;10.60;;
43146;SDS011;28752;48.266;7.402;2023-02-22T10:40:21;18.95;;;12.43;;
43146;SDS011;28752;48.266;7.402;2023-02-22T10:42:55;19.55;;;11.95;;
43146;SDS011;28752;48.266;7.402;2023-02-22T10:45:32;17.15;;;10.85;;
43146;SDS011;28752;48.266;7.402;2023-02-22T10:48:03;19.30;;;10.88;;
43146;SDS011;28752;48.266;7.402;2023-02-22T10:50:32;15.88;;;10.65;;
43146;SDS011;28752;48.266;7.402;2023-02-22T10:53:00;16.67;;;11.30;;
43146;SDS011;28752;48.266;7.402;2023-02-22T10:55:25;16.13;;;11.43;;
43146;SDS011;28752;48.266;7.402;2023-02-22T10:57:51;17.10;;;11.30;;
43146;SDS011;28752;48.266;7.402;2023-02-22T11:00:29;19.85;;;11.88;;
43146;SDS011;28752;48.266;7.402;2023-02-22T11:03:17;18.23;;;12.20;;
43146;SDS011;28752;48.266;7.402;2023-02-22T11:05:45;18.63;;;11.10;;
43146;SDS011;28752;48.266;7.402;2023-02-22T11:08:15;18.45;;;11.93;;
43146;SDS011;28752;48.266;7.402;2023-02-22T11:10:49;20.23;;;11.98;;
43146;SDS011;28752;48.266;7.402;2023-02-22T11:13:17;17.50;;;11.38;;
43146;SDS011;28752;48.266;7.402;2023-02-22T11:15:42;17.73;;;12.07;;
43146;SDS011;28752;48.266;7.402;2023-02-22T11:18:20;17.70;;;11.43;;
43146;SDS011;28752;48.266;7.402;2023-02-22T11:20:49;15.93;;;10.95;;
43146;SDS011;28752;48.266;7.402;2023-02-22T11:23:23;16.77;;;11.80;;
43146;SDS011;28752;48.266;7.402;2023-02-22T11:25:49;17.03;;;10.97;;
43146;SDS011;28752;48.266;7.402;2023-02-22T11:28:27;17.20;;;11.60;;
43146;SDS011;28752;48.266;7.402;2023-02-22T11:31:42;17.13;;;11.30;;
43146;SDS011;28752;48.266;7.402;2023-02-22T11:33:47;15.18;;;10.60;;
43146;SDS011;28752;48.266;7.402;2023-02-22T11:36:28;18.98;;;11.88;;
43146;SDS011;28752;48.266;7.402;2023-02-22T11:39:04;18.13;;;11.30;;
43146;SDS011;28752;48.266;7.402;2023-02-22T11:41:44;15.32;;;10.85;;
43146;SDS011;28752;48.266;7.402;2023-02-22T11:46:47;17.55;;;11.68;;
43146;SDS011;28752;48.266;7.402;2023-02-22T11:49:14;17.45;;;11.65;;
43146;SDS011;28752;48.266;7.402;2023-02-22T12:02:53;16.58;;;11.15;;
43146;SDS011;28752;48.266;7.402;2023-02-22T12:19:32;19.27;;;11.35;;
43146;SDS011;28752;48.266;7.402;2023-02-22T12:24:48;15.98;;;11.32;;
43146;SDS011;28752;48.266;7.402;2023-02-22T12:27:41;15.77;;;10.88;;
43146;SDS011;28752;48.266;7.402;2023-02-22T12:30:18;15.85;;;10.90;;
43146;SDS011;28752;48.266;7.402;2023-02-22T12:32:55;14.60;;;10.48;;
43146;SDS011;28752;48.266;7.402;2023-02-22T12:40:55;14.48;;;10.30;;
43146;SDS011;28752;48.266;7.402;2023-02-22T12:43:24;16.23;;;9.40;;
43146;SDS011;28752;48.266;7.402;2023-02-22T12:46:02;16.05;;;8.93;;
43146;SDS011;28752;48.266;7.402;2023-02-22T13:01:50;15.50;;;10.75;;
43146;SDS011;28752;48.266;7.402;2023-02-22T13:04:19;16.15;;;11.82;;
43146;SDS011;28752;48.266;7.402;2023-02-22T13:09:22;18.20;;;12.77;;
43146;SDS011;28752;48.266;7.402;2023-02-22T13:17:23;21.98;;;14.15;;
43146;SDS011;28752;48.266;7.402;2023-02-22T13:20:12;19.27;;;14.27;;
43146;SDS011;28752;48.266;7.402;2023-02-22T13:22:52;22.30;;;15.02;;
43146;SDS011;28752;48.266;7.402;2023-02-22T13:27:57;22.38;;;15.98;;
43146;SDS011;28752;48.266;7.402;2023-02-22T13:30:39;22.83;;;15.25;;
43146;SDS011;28752;48.266;7.402;2023-02-22T13:35:51;20.67;;;15.15;;
43146;SDS011;28752;48.266;7.402;2023-02-22T13:52:25;23.27;;;16.67;;
43146;SDS011;28752;48.266;7.402;2023-02-22T13:54:54;24.15;;;16.52;;
43146;SDS011;28752;48.266;7.402;2023-02-22T14:05:35;23.52;;;16.23;;
43146;SDS011;28752;48.266;7.402;2023-02-22T14:13:20;23.50;;;16.55;;
43146;SDS011;28752;48.266;7.402;2023-02-22T14:18:22;24.55;;;16.50;;
43146;SDS011;28752;48.266;7.402;2023-02-22T14:21:05;23.65;;;16.55;;
43146;SDS011;28752;48.266;7.402;2023-02-22T14:26:24;24.08;;;17.10;;
43146;SDS011;28752;48.266;7.402;2023-02-22T14:31:19;24.95;;;17.42;;
43146;SDS011;28752;48.266;7.402;2023-02-22T14:36:32;29.50;;;18.45;;
43146;SDS011;28752;48.266;7.402;2023-02-22T14:39:17;24.88;;;18.40;;
43146;SDS011;28752;48.266;7.402;2023-02-22T14:45:00;23.05;;;16.98;;
43146;SDS011;28752;48.266;7.402;2023-02-22T14:47:40;26.08;;;17.98;;
43146;SDS011;28752;48.266;7.402;2023-02-22T14:50:17;26.42;;;17.58;;
43146;SDS011;28752;48.266;7.402;2023-02-22T14:52:47;26.67;;;17.35;;
43146;SDS011;28752;48.266;7.402;2023-02-22T14:55:24;24.80;;;17.17;;
43146;SDS011;28752;48.266;7.402;2023-02-22T14:57:58;25.33;;;16.92;;
43146;SDS011;28752;48.266;7.402;2023-02-22T15:00:42;23.98;;;16.73;;
43146;SDS011;28752;48.266;7.402;2023-02-22T15:06:09;26.08;;;16.88;;
43146;SDS011;28752;48.266;7.402;2023-02-22T15:08:40;25.67;;;16.58;;
43146;SDS011;28752;48.266;7.402;2023-02-22T15:11:40;23.50;;;15.90;;
43146;SDS011;28752;48.266;7.402;2023-02-22T15:13:59;23.35;;;15.77;;
43146;SDS011;28752;48.266;7.402;2023-02-22T15:16:39;24.60;;;16.50;;
43146;SDS011;28752;48.266;7.402;2023-02-22T15:19:10;24.95;;;16.52;;
43146;SDS011;28752;48.266;7.402;2023-02-22T15:21:36;24.93;;;16.00;;
43146;SDS011;28752;48.266;7.402;2023-02-22T15:24:09;25.23;;;16.38;;
43146;SDS011;28752;48.266;7.402;2023-02-22T15:26:45;27.23;;;15.90;;
43146;SDS011;28752;48.266;7.402;2023-02-22T15:29:24;23.45;;;15.90;;
43146;SDS011;28752;48.266;7.402;2023-02-22T15:31:54;29.02;;;17.63;;
43146;SDS011;28752;48.266;7.402;2023-02-22T15:34:23;24.40;;;16.33;;
43146;SDS011;28752;48.266;7.402;2023-02-22T15:36:53;25.45;;;16.60;;
43146;SDS011;28752;48.266;7.402;2023-02-22T15:39:22;26.40;;;17.02;;
43146;SDS011;28752;48.266;7.402;2023-02-22T15:44:46;25.85;;;18.02;;
43146;SDS011;28752;48.266;7.402;2023-02-22T15:47:17;25.35;;;17.15;;
43146;SDS011;28752;48.266;7.402;2023-02-22T15:52:39;28.58;;;17.77;;
43146;SDS011;28752;48.266;7.402;2023-02-22T15:55:25;25.73;;;16.98;;
43146;SDS011;28752;48.266;7.402;2023-02-22T15:57:50;25.75;;;17.17;;
43146;SDS011;28752;48.266;7.402;2023-02-22T16:00:20;25.60;;;16.70;;
43146;SDS011;28752;48.266;7.402;2023-02-22T16:02:57;29.30;;;17.00;;
43146;SDS011;28752;48.266;7.402;2023-02-22T16:05:27;26.83;;;16.88;;
43146;SDS011;28752;48.266;7.402;2023-02-22T16:08:00;25.40;;;15.82;;
43146;SDS011;28752;48.266;7.402;2023-02-22T16:10:28;27.55;;;16.92;;
43146;SDS011;28752;48.266;7.402;2023-02-22T16:13:04;25.30;;;16.83;;
43146;SDS011;28752;48.266;7.402;2023-02-22T16:15:34;23.23;;;15.23;;
43146;SDS011;28752;48.266;7.402;2023-02-22T16:18:15;24.75;;;16.02;;
43146;SDS011;28752;48.266;7.402;2023-02-22T16:20:56;26.60;;;16.67;;
43146;SDS011;28752;48.266;7.402;2023-02-22T16:23:27;24.58;;;15.07;;
43146;SDS011;28752;48.266;7.402;2023-02-22T16:26:04;27.35;;;16.73;;
43146;SDS011;28752;48.266;7.402;2023-02-22T16:28:48;23.52;;;14.95;;
43146;SDS011;28752;48.266;7.402;2023-02-22T16:31:17;25.02;;;16.10;;
43146;SDS011;28752;48.266;7.402;2023-02-22T16:33:49;25.50;;;16.70;;
43146;SDS011;28752;48.266;7.402;2023-02-22T16:36:17;26.00;;;16.98;;
43146;SDS011;28752;48.266;7.402;2023-02-22T16:38:45;26.10;;;16.05;;
43146;SDS011;28752;48.266;7.402;2023-02-22T16:41:12;26.27;;;16.27;;
43146;SDS011;28752;48.266;7.402;2023-02-22T16:43:43;27.65;;;15.82;;
43146;SDS011;28752;48.266;7.402;2023-02-22T16:46:11;24.75;;;14.93;;
43146;SDS011;28752;48.266;7.402;2023-02-22T16:48:36;23.60;;;15.43;;
43146;SDS011;28752;48.266;7.402;2023-02-22T16:51:27;23.58;;;15.20;;
43146;SDS011;28752;48.266;7.402;2023-02-22T16:53:53;24.10;;;14.50;;
43146;SDS011;28752;48.266;7.402;2023-02-22T16:56:20;27.70;;;15.57;;
43146;SDS011;28752;48.266;7.402;2023-02-22T16:58:51;23.58;;;13.98;;
43146;SDS011;28752;48.266;7.402;2023-02-22T17:01:17;25.00;;;14.63;;
43146;SDS011;28752;48.266;7.402;2023-02-22T17:03:43;24.33;;;13.95;;
43146;SDS011;28752;48.266;7.402;2023-02-22T17:06:09;24.80;;;14.18;;
43146;SDS011;28752;48.266;7.402;2023-02-22T17:08:36;22.00;;;13.13;;
43146;SDS011;28752;48.266;7.402;2023-02-22T17:11:04;21.88;;;13.90;;
43146;SDS011;28752;48.266;7.402;2023-02-22T17:13:32;22.88;;;13.27;;
43146;SDS011;28752;48.266;7.402;2023-02-22T17:15:59;24.58;;;14.43;;
43146;SDS011;28752;48.266;7.402;2023-02-22T17:18:25;24.17;;;13.35;;
43146;SDS011;28752;48.266;7.402;2023-02-22T17:20:52;23.15;;;12.77;;
43146;SDS011;28752;48.266;7.402;2023-02-22T17:23:19;21.95;;;12.48;;
43146;SDS011;28752;48.266;7.402;2023-02-22T17:25:52;22.73;;;13.98;;
43146;SDS011;28752;48.266;7.402;2023-02-22T17:28:26;24.83;;;12.95;;
43146;SDS011;28752;48.266;7.402;2023-02-22T17:30:53;20.80;;;12.43;;
43146;SDS011;28752;48.266;7.402;2023-02-22T17:33:20;22.92;;;12.63;;
43146;SDS011;28752;48.266;7.402;2023-02-22T17:35:51;21.08;;;12.82;;
43146;SDS011;28752;48.266;7.402;2023-02-22T17:40:43;20.77;;;12.30;;